sensor_id;sensor_type;location;lat;lon;timestamp;temperature;humidity
921;DHT22;447;51.332;6.778;2022-10-31T00:00:59;17.60;99.90
921;DHT22;447;51.332;6.778;2022-10-31T00:03:25;17.60;99.90
921;DHT22;447;51.332;6.778;2022-10-31T00:05:54;17.60;99.90
921;DHT22;447;51.332;6.778;2022-10-31T00:08:20;17.60;99.90
921;DHT22;447;51.332;6.778;2022-10-31T00:10:46;17.60;99.90
921;DHT22;447;51.332;6.778;2022-10-31T00:13:13;17.60;99.90
921;DHT22;447;51.332;6.778;2022-10-31T00:15:40;17.60;99.90
921;DHT22;447;51.332;6.778;2022-10-31T00:18:08;17.60;99.90
921;DHT22;447;51.332;6.778;2022-10-31T00:20:34;17.60;99.90
921;DHT22;447;51.332;6.778;2022-10-31T00:23:04;17.60;99.90
921;DHT22;447;51.332;6.778;2022-10-31T00:25:34;17.60;99.90
921;DHT22;447;51.332;6.778;2022-10-31T00:28:01;17.60;99.90
921;DHT22;447;51.332;6.778;2022-10-31T00:30:28;17.50;99.90
921;DHT22;447;51.332;6.778;2022-10-31T00:33:02;17.50;99.90
921;DHT22;447;51.332;6.778;2022-10-31T00:35:28;17.50;99.90
921;DHT22;447;51.332;6.778;2022-10-31T00:37:57;17.50;99.90
921;DHT22;447;51.332;6.778;2022-10-31T00:40:25;17.50;99.90
921;DHT22;447;51.332;6.778;2022-10-31T00:42:51;17.50;99.90
921;DHT22;447;51.332;6.778;2022-10-31T00:45:20;17.50;99.90
921;DHT22;447;51.332;6.778;2022-10-31T00:47:47;17.50;99.90
921;DHT22;447;51.332;6.778;2022-10-31T00:50:13;17.50;99.90
921;DHT22;447;51.332;6.778;2022-10-31T00:52:39;17.50;99.90
921;DHT22;447;51.332;6.778;2022-10-31T00:55:07;17.50;99.90
921;DHT22;447;51.332;6.778;2022-10-31T00:57:36;17.50;99.90
921;DHT22;447;51.332;6.778;2022-10-31T01:00:05;17.50;99.90
921;DHT22;447;51.332;6.778;2022-10-31T01:02:33;17.50;99.90
921;DHT22;447;51.332;6.778;2022-10-31T01:05:02;17.50;99.90
921;DHT22;447;51.332;6.778;2022-10-31T01:07:31;17.50;99.90
921;DHT22;447;51.332;6.778;2022-10-31T01:09:57;17.50;99.90
921;DHT22;447;51.332;6.778;2022-10-31T01:12:25;17.50;99.90
921;DHT22;447;51.332;6.778;2022-10-31T01:14:53;17.40;99.90
921;DHT22;447;51.332;6.778;2022-10-31T01:17:19;17.50;99.90
921;DHT22;447;51.332;6.778;2022-10-31T01:19:48;17.40;99.90
921;DHT22;447;51.332;6.778;2022-10-31T01:22:17;17.40;99.90
921;DHT22;447;51.332;6.778;2022-10-31T01:24:43;17.40;99.90
921;DHT22;447;51.332;6.778;2022-10-31T01:27:11;17.40;99.90
921;DHT22;447;51.332;6.778;2022-10-31T01:29:40;17.40;99.90
921;DHT22;447;51.332;6.778;2022-10-31T01:32:08;17.40;99.90
921;DHT22;447;51.332;6.778;2022-10-31T01:34:34;17.40;99.90
921;DHT22;447;51.332;6.778;2022-10-31T01:37:04;17.40;99.90
921;DHT22;447;51.332;6.778;2022-10-31T01:39:30;17.40;99.90
921;DHT22;447;51.332;6.778;2022-10-31T01:41:56;17.40;99.90
921;DHT22;447;51.332;6.778;2022-10-31T01:46:54;17.40;99.90
921;DHT22;447;51.332;6.778;2022-10-31T01:49:34;17.40;99.90
921;DHT22;447;51.332;6.778;2022-10-31T01:52:05;17.30;99.90
921;DHT22;447;51.332;6.778;2022-10-31T01:54:41;17.30;99.90
921;DHT22;447;51.332;6.778;2022-10-31T01:57:12;17.30;99.90
921;DHT22;447;51.332;6.778;2022-10-31T01:59:55;17.30;99.90
921;DHT22;447;51.332;6.778;2022-10-31T02:02:25;17.30;99.90
921;DHT22;447;51.332;6.778;2022-10-31T02:04:52;17.30;99.90
921;DHT22;447;51.332;6.778;2022-10-31T02:07:25;17.30;99.90
921;DHT22;447;51.332;6.778;2022-10-31T02:09:58;17.30;99.90
921;DHT22;447;51.332;6.778;2022-10-31T02:12:25;17.30;99.90
921;DHT22;447;51.332;6.778;2022-10-31T02:14:56;17.30;99.90
921;DHT22;447;51.332;6.778;2022-10-31T02:17:22;17.30;99.90
921;DHT22;447;51.332;6.778;2022-10-31T02:34:34;17.20;99.90
921;DHT22;447;51.332;6.778;2022-10-31T02:37:15;17.20;99.90
921;DHT22;447;51.332;6.778;2022-10-31T02:39:52;17.20;99.90
921;DHT22;447;51.332;6.778;2022-10-31T02:43:41;17.20;99.90
921;DHT22;447;51.332;6.778;2022-10-31T02:48:14;17.20;99.90
921;DHT22;447;51.332;6.778;2022-10-31T02:50:55;17.20;99.90
921;DHT22;447;51.332;6.778;2022-10-31T02:53:22;17.10;99.90
921;DHT22;447;51.332;6.778;2022-10-31T02:56:17;17.10;99.90
921;DHT22;447;51.332;6.778;2022-10-31T02:58:57;17.10;99.90
921;DHT22;447;51.332;6.778;2022-10-31T03:10:12;17.10;99.90
921;DHT22;447;51.332;6.778;2022-10-31T03:12:30;17.10;99.90
921;DHT22;447;51.332;6.778;2022-10-31T03:15:23;17.10;99.90
921;DHT22;447;51.332;6.778;2022-10-31T03:21:14;17.10;99.90
921;DHT22;447;51.332;6.778;2022-10-31T03:23:44;17.10;99.90
921;DHT22;447;51.332;6.778;2022-10-31T03:26:19;17.00;99.90
921;DHT22;447;51.332;6.778;2022-10-31T03:28:53;17.00;99.90
921;DHT22;447;51.332;6.778;2022-10-31T03:31:23;17.00;99.90
921;DHT22;447;51.332;6.778;2022-10-31T03:33:51;17.00;99.90
921;DHT22;447;51.332;6.778;2022-10-31T03:36:18;17.00;99.90
921;DHT22;447;51.332;6.778;2022-10-31T03:38:50;17.00;99.90
921;DHT22;447;51.332;6.778;2022-10-31T03:41:24;17.00;99.90
921;DHT22;447;51.332;6.778;2022-10-31T03:44:02;17.00;99.90
921;DHT22;447;51.332;6.778;2022-10-31T03:46:29;17.00;99.90
921;DHT22;447;51.332;6.778;2022-10-31T03:48:57;17.00;99.90
921;DHT22;447;51.332;6.778;2022-10-31T03:54:13;16.90;99.90
921;DHT22;447;51.332;6.778;2022-10-31T03:57:32;16.90;99.90
921;DHT22;447;51.332;6.778;2022-10-31T03:59:44;16.90;99.90
921;DHT22;447;51.332;6.778;2022-10-31T04:02:20;16.90;99.90
921;DHT22;447;51.332;6.778;2022-10-31T04:04:49;16.90;99.90
921;DHT22;447;51.332;6.778;2022-10-31T04:07:15;16.90;99.90
921;DHT22;447;51.332;6.778;2022-10-31T04:09:45;16.90;99.90
921;DHT22;447;51.332;6.778;2022-10-31T04:12:14;16.90;99.90
921;DHT22;447;51.332;6.778;2022-10-31T04:14:42;16.90;99.90
921;DHT22;447;51.332;6.778;2022-10-31T04:17:13;16.90;99.90
921;DHT22;447;51.332;6.778;2022-10-31T04:19:44;16.80;99.90
921;DHT22;447;51.332;6.778;2022-10-31T04:22:13;16.90;99.90
921;DHT22;447;51.332;6.778;2022-10-31T04:24:41;16.80;99.90
921;DHT22;447;51.332;6.778;2022-10-31T04:27:12;16.90;99.90
921;DHT22;447;51.332;6.778;2022-10-31T04:29:41;16.80;99.90
921;DHT22;447;51.332;6.778;2022-10-31T04:32:07;16.80;99.90
921;DHT22;447;51.332;6.778;2022-10-31T04:34:33;16.80;99.90
921;DHT22;447;51.332;6.778;2022-10-31T04:37:04;16.80;99.90
921;DHT22;447;51.332;6.778;2022-10-31T04:39:30;16.80;99.90
921;DHT22;447;51.332;6.778;2022-10-31T04:42:27;16.80;99.90
921;DHT22;447;51.332;6.778;2022-10-31T04:44:57;16.80;99.90
921;DHT22;447;51.332;6.778;2022-10-31T04:47:26;16.80;99.90
921;DHT22;447;51.332;6.778;2022-10-31T04:49:56;16.80;99.90
921;DHT22;447;51.332;6.778;2022-10-31T04:52:22;16.80;99.90
921;DHT22;447;51.332;6.778;2022-10-31T04:54:54;16.80;99.90
921;DHT22;447;51.332;6.778;2022-10-31T04:57:42;16.80;99.90
921;DHT22;447;51.332;6.778;2022-10-31T05:00:10;16.80;99.90
921;DHT22;447;51.332;6.778;2022-10-31T05:02:51;16.80;99.90
921;DHT22;447;51.332;6.778;2022-10-31T05:05:24;16.70;99.90
921;DHT22;447;51.332;6.778;2022-10-31T05:07:55;16.70;99.90
921;DHT22;447;51.332;6.778;2022-10-31T05:10:27;16.70;99.90
921;DHT22;447;51.332;6.778;2022-10-31T05:12:57;16.70;99.90
921;DHT22;447;51.332;6.778;2022-10-31T05:15:49;16.70;99.90
921;DHT22;447;51.332;6.778;2022-10-31T05:18:37;16.70;99.90
921;DHT22;447;51.332;6.778;2022-10-31T05:21:23;16.70;99.90
921;DHT22;447;51.332;6.778;2022-10-31T05:23:57;16.70;99.90
921;DHT22;447;51.332;6.778;2022-10-31T05:26:24;16.70;99.90
921;DHT22;447;51.332;6.778;2022-10-31T05:28:54;16.70;99.90
921;DHT22;447;51.332;6.778;2022-10-31T05:31:20;16.70;99.90
921;DHT22;447;51.332;6.778;2022-10-31T05:33:52;16.70;99.90
921;DHT22;447;51.332;6.778;2022-10-31T05:36:44;16.70;99.90
921;DHT22;447;51.332;6.778;2022-10-31T05:39:17;16.60;99.90
921;DHT22;447;51.332;6.778;2022-10-31T05:41:48;16.60;99.90
921;DHT22;447;51.332;6.778;2022-10-31T05:44:21;16.60;99.90
921;DHT22;447;51.332;6.778;2022-10-31T05:47:10;16.60;99.90
921;DHT22;447;51.332;6.778;2022-10-31T05:49:54;16.60;99.90
921;DHT22;447;51.332;6.778;2022-10-31T05:52:23;16.60;99.90
921;DHT22;447;51.332;6.778;2022-10-31T05:54:58;16.60;99.90
921;DHT22;447;51.332;6.778;2022-10-31T05:57:24;16.60;99.90
921;DHT22;447;51.332;6.778;2022-10-31T05:59:52;16.60;99.90
921;DHT22;447;51.332;6.778;2022-10-31T06:02:22;16.60;99.90
921;DHT22;447;51.332;6.778;2022-10-31T06:05:07;16.60;99.90
921;DHT22;447;51.332;6.778;2022-10-31T06:07:33;16.60;99.90
921;DHT22;447;51.332;6.778;2022-10-31T06:10:05;16.60;99.90
921;DHT22;447;51.332;6.778;2022-10-31T06:12:31;16.50;99.90
921;DHT22;447;51.332;6.778;2022-10-31T06:15:17;16.50;99.90
921;DHT22;447;51.332;6.778;2022-10-31T06:17:57;16.50;99.90
921;DHT22;447;51.332;6.778;2022-10-31T06:20:25;16.50;99.90
921;DHT22;447;51.332;6.778;2022-10-31T06:23:02;16.50;99.90
921;DHT22;447;51.332;6.778;2022-10-31T06:25:30;16.50;99.90
921;DHT22;447;51.332;6.778;2022-10-31T06:27:57;16.50;99.90
921;DHT22;447;51.332;6.778;2022-10-31T06:30:37;16.50;99.90
921;DHT22;447;51.332;6.778;2022-10-31T06:33:06;16.50;99.90
921;DHT22;447;51.332;6.778;2022-10-31T06:35:37;16.50;99.90
921;DHT22;447;51.332;6.778;2022-10-31T06:38:04;16.40;99.90
921;DHT22;447;51.332;6.778;2022-10-31T06:40:37;16.40;99.90
921;DHT22;447;51.332;6.778;2022-10-31T06:43:17;16.40;99.90
921;DHT22;447;51.332;6.778;2022-10-31T06:45:50;16.40;99.90
921;DHT22;447;51.332;6.778;2022-10-31T06:48:24;16.40;99.90
921;DHT22;447;51.332;6.778;2022-10-31T06:51:12;16.40;99.90
921;DHT22;447;51.332;6.778;2022-10-31T06:53:38;16.40;99.90
921;DHT22;447;51.332;6.778;2022-10-31T06:56:10;16.40;99.90
921;DHT22;447;51.332;6.778;2022-10-31T06:58:44;16.40;99.90
921;DHT22;447;51.332;6.778;2022-10-31T07:01:13;16.40;99.90
921;DHT22;447;51.332;6.778;2022-10-31T07:03:44;16.40;99.90
921;DHT22;447;51.332;6.778;2022-10-31T07:06:13;16.40;99.90
921;DHT22;447;51.332;6.778;2022-10-31T07:08:39;16.30;99.90
921;DHT22;447;51.332;6.778;2022-10-31T07:11:08;16.40;99.90
921;DHT22;447;51.332;6.778;2022-10-31T07:13:38;16.40;99.90
921;DHT22;447;51.332;6.778;2022-10-31T07:16:09;16.30;99.90
921;DHT22;447;51.332;6.778;2022-10-31T07:18:39;16.30;99.90
921;DHT22;447;51.332;6.778;2022-10-31T07:21:08;16.30;99.90
921;DHT22;447;51.332;6.778;2022-10-31T07:23:34;16.30;99.90
921;DHT22;447;51.332;6.778;2022-10-31T07:26:32;16.30;99.90
921;DHT22;447;51.332;6.778;2022-10-31T07:29:02;16.30;99.90
921;DHT22;447;51.332;6.778;2022-10-31T07:31:31;16.30;99.90
921;DHT22;447;51.332;6.778;2022-10-31T07:34:05;16.30;99.90
921;DHT22;447;51.332;6.778;2022-10-31T07:36:51;16.30;99.90
921;DHT22;447;51.332;6.778;2022-10-31T07:39:25;16.30;99.90
921;DHT22;447;51.332;6.778;2022-10-31T07:41:51;16.30;99.90
921;DHT22;447;51.332;6.778;2022-10-31T07:44:19;16.30;99.90
921;DHT22;447;51.332;6.778;2022-10-31T07:47:07;16.30;99.90
921;DHT22;447;51.332;6.778;2022-10-31T07:49:54;16.30;99.90
921;DHT22;447;51.332;6.778;2022-10-31T07:52:38;16.20;99.90
921;DHT22;447;51.332;6.778;2022-10-31T07:55:37;16.20;99.90
921;DHT22;447;51.332;6.778;2022-10-31T07:58:15;16.20;99.90
921;DHT22;447;51.332;6.778;2022-10-31T08:00:46;16.20;99.90
921;DHT22;447;51.332;6.778;2022-10-31T08:03:18;16.20;99.90
921;DHT22;447;51.332;6.778;2022-10-31T08:05:56;16.20;99.90
921;DHT22;447;51.332;6.778;2022-10-31T08:08:47;16.20;99.90
921;DHT22;447;51.332;6.778;2022-10-31T08:11:13;16.20;99.90
921;DHT22;447;51.332;6.778;2022-10-31T08:13:39;16.20;99.90
921;DHT22;447;51.332;6.778;2022-10-31T08:16:06;16.20;99.90
921;DHT22;447;51.332;6.778;2022-10-31T08:18:36;16.20;99.90
921;DHT22;447;51.332;6.778;2022-10-31T08:21:08;16.20;99.90
921;DHT22;447;51.332;6.778;2022-10-31T08:23:37;16.20;99.90
921;DHT22;447;51.332;6.778;2022-10-31T08:26:06;16.20;99.90
921;DHT22;447;51.332;6.778;2022-10-31T08:28:32;16.20;99.90
921;DHT22;447;51.332;6.778;2022-10-31T08:30:58;16.20;99.90
921;DHT22;447;51.332;6.778;2022-10-31T08:33:42;16.20;99.90
921;DHT22;447;51.332;6.778;2022-10-31T08:36:27;16.20;99.90
921;DHT22;447;51.332;6.778;2022-10-31T08:39:19;16.20;99.90
921;DHT22;447;51.332;6.778;2022-10-31T08:41:45;16.20;99.90
921;DHT22;447;51.332;6.778;2022-10-31T08:44:12;16.20;99.90
921;DHT22;447;51.332;6.778;2022-10-31T08:46:38;16.20;99.90
921;DHT22;447;51.332;6.778;2022-10-31T08:49:04;16.20;99.90
921;DHT22;447;51.332;6.778;2022-10-31T08:51:33;16.20;99.90
921;DHT22;447;51.332;6.778;2022-10-31T08:53:59;16.20;99.90
921;DHT22;447;51.332;6.778;2022-10-31T08:56:33;16.20;99.90
921;DHT22;447;51.332;6.778;2022-10-31T08:59:00;16.20;99.90
921;DHT22;447;51.332;6.778;2022-10-31T09:01:41;16.20;99.90
921;DHT22;447;51.332;6.778;2022-10-31T09:04:12;16.20;99.90
921;DHT22;447;51.332;6.778;2022-10-31T09:06:41;16.20;99.90
921;DHT22;447;51.332;6.778;2022-10-31T09:09:07;16.20;99.90
921;DHT22;447;51.332;6.778;2022-10-31T09:11:37;16.20;99.90
921;DHT22;447;51.332;6.778;2022-10-31T09:14:17;16.20;99.90
921;DHT22;447;51.332;6.778;2022-10-31T09:17:06;16.20;99.90
921;DHT22;447;51.332;6.778;2022-10-31T09:19:52;16.30;99.90
921;DHT22;447;51.332;6.778;2022-10-31T09:22:18;16.30;99.90
921;DHT22;447;51.332;6.778;2022-10-31T09:24:44;16.30;99.90
921;DHT22;447;51.332;6.778;2022-10-31T09:27:11;16.30;99.90
921;DHT22;447;51.332;6.778;2022-10-31T09:29:43;16.30;99.90
921;DHT22;447;51.332;6.778;2022-10-31T09:32:13;16.30;99.90
921;DHT22;447;51.332;6.778;2022-10-31T09:34:44;16.30;99.90
921;DHT22;447;51.332;6.778;2022-10-31T09:37:16;16.30;99.90
921;DHT22;447;51.332;6.778;2022-10-31T09:40:06;16.30;99.90
921;DHT22;447;51.332;6.778;2022-10-31T09:51:37;16.30;99.90
921;DHT22;447;51.332;6.778;2022-10-31T09:57:03;16.30;99.90
921;DHT22;447;51.332;6.778;2022-10-31T09:59:34;16.30;99.90
921;DHT22;447;51.332;6.778;2022-10-31T10:04:43;16.40;99.90
921;DHT22;447;51.332;6.778;2022-10-31T10:07:44;16.40;99.90
921;DHT22;447;51.332;6.778;2022-10-31T10:19:18;16.40;99.90
921;DHT22;447;51.332;6.778;2022-10-31T10:24:59;16.40;99.90
921;DHT22;447;51.332;6.778;2022-10-31T10:28:04;16.40;99.90
921;DHT22;447;51.332;6.778;2022-10-31T10:30:41;16.40;99.90
921;DHT22;447;51.332;6.778;2022-10-31T10:33:14;16.50;99.90
921;DHT22;447;51.332;6.778;2022-10-31T10:35:58;16.50;99.90
921;DHT22;447;51.332;6.778;2022-10-31T10:41:20;16.50;99.90
921;DHT22;447;51.332;6.778;2022-10-31T10:43:52;16.50;99.90
921;DHT22;447;51.332;6.778;2022-10-31T10:49:45;16.50;99.90
921;DHT22;447;51.332;6.778;2022-10-31T10:55:06;16.60;99.90
921;DHT22;447;51.332;6.778;2022-10-31T11:02:53;16.60;99.90
921;DHT22;447;51.332;6.778;2022-10-31T11:07:48;16.60;99.90
921;DHT22;447;51.332;6.778;2022-10-31T11:10:16;16.60;99.90
921;DHT22;447;51.332;6.778;2022-10-31T11:12:56;16.70;99.90
921;DHT22;447;51.332;6.778;2022-10-31T11:15:25;16.60;99.90
921;DHT22;447;51.332;6.778;2022-10-31T11:17:53;16.70;99.90
921;DHT22;447;51.332;6.778;2022-10-31T11:22:48;16.70;99.90
921;DHT22;447;51.332;6.778;2022-10-31T11:27:46;16.90;99.90
921;DHT22;447;51.332;6.778;2022-10-31T11:30:17;17.00;99.90
921;DHT22;447;51.332;6.778;2022-10-31T11:32:51;17.10;99.90
921;DHT22;447;51.332;6.778;2022-10-31T11:35:19;17.20;99.90
921;DHT22;447;51.332;6.778;2022-10-31T11:37:51;17.30;99.90
921;DHT22;447;51.332;6.778;2022-10-31T11:40:25;17.30;99.90
921;DHT22;447;51.332;6.778;2022-10-31T11:42:54;17.40;99.90
921;DHT22;447;51.332;6.778;2022-10-31T11:47:57;17.50;99.90
921;DHT22;447;51.332;6.778;2022-10-31T11:50:41;17.60;99.90
921;DHT22;447;51.332;6.778;2022-10-31T11:53:18;17.70;99.90
921;DHT22;447;51.332;6.778;2022-10-31T11:55:46;17.80;99.90
921;DHT22;447;51.332;6.778;2022-10-31T11:58:24;17.80;99.90
921;DHT22;447;51.332;6.778;2022-10-31T12:00:52;17.80;99.90
921;DHT22;447;51.332;6.778;2022-10-31T12:06:02;17.90;99.90
921;DHT22;447;51.332;6.778;2022-10-31T12:08:31;18.00;99.90
921;DHT22;447;51.332;6.778;2022-10-31T12:19:36;18.10;99.90
921;DHT22;447;51.332;6.778;2022-10-31T12:22:20;18.20;99.90
921;DHT22;447;51.332;6.778;2022-10-31T12:30:21;18.40;99.90
921;DHT22;447;51.332;6.778;2022-10-31T12:41:22;18.50;99.90
921;DHT22;447;51.332;6.778;2022-10-31T12:46:58;18.40;99.90
921;DHT22;447;51.332;6.778;2022-10-31T12:49:45;18.40;99.90
921;DHT22;447;51.332;6.778;2022-10-31T13:01:14;18.40;99.90
921;DHT22;447;51.332;6.778;2022-10-31T13:04:11;18.50;99.90
921;DHT22;447;51.332;6.778;2022-10-31T13:06:57;18.50;99.90
921;DHT22;447;51.332;6.778;2022-10-31T13:09:30;18.60;99.90
921;DHT22;447;51.332;6.778;2022-10-31T13:12:07;18.50;99.90
921;DHT22;447;51.332;6.778;2022-10-31T13:14:41;18.50;99.90
921;DHT22;447;51.332;6.778;2022-10-31T13:17:24;18.50;99.90
921;DHT22;447;51.332;6.778;2022-10-31T13:20:02;18.40;99.90
921;DHT22;447;51.332;6.778;2022-10-31T13:22:32;18.40;99.90
921;DHT22;447;51.332;6.778;2022-10-31T13:25:23;18.30;99.90
921;DHT22;447;51.332;6.778;2022-10-31T13:30:25;18.30;99.90
921;DHT22;447;51.332;6.778;2022-10-31T13:36:00;18.20;99.90
921;DHT22;447;51.332;6.778;2022-10-31T13:40:59;18.20;99.90
921;DHT22;447;51.332;6.778;2022-10-31T13:43:41;18.10;99.90
921;DHT22;447;51.332;6.778;2022-10-31T13:46:26;18.10;99.90
921;DHT22;447;51.332;6.778;2022-10-31T13:49:00;18.10;99.90
921;DHT22;447;51.332;6.778;2022-10-31T13:51:31;18.10;99.90
921;DHT22;447;51.332;6.778;2022-10-31T13:57:22;18.10;99.90
921;DHT22;447;51.332;6.778;2022-10-31T13:59:59;18.10;99.90
921;DHT22;447;51.332;6.778;2022-10-31T14:02:31;18.00;99.90
921;DHT22;447;51.332;6.778;2022-10-31T14:05:06;18.00;99.90
921;DHT22;447;51.332;6.778;2022-10-31T14:07:43;18.00;99.90
921;DHT22;447;51.332;6.778;2022-10-31T14:10:20;18.00;99.90
921;DHT22;447;51.332;6.778;2022-10-31T14:12:47;18.00;99.90
921;DHT22;447;51.332;6.778;2022-10-31T14:18:00;18.00;99.90
921;DHT22;447;51.332;6.778;2022-10-31T14:23:34;18.00;99.90
921;DHT22;447;51.332;6.778;2022-10-31T14:28:46;18.00;99.90
921;DHT22;447;51.332;6.778;2022-10-31T14:42:21;18.00;99.90
921;DHT22;447;51.332;6.778;2022-10-31T14:48:29;18.00;99.90
921;DHT22;447;51.332;6.778;2022-10-31T14:51:00;18.00;99.90
921;DHT22;447;51.332;6.778;2022-10-31T14:53:45;18.00;99.90
921;DHT22;447;51.332;6.778;2022-10-31T14:56:19;18.00;99.90
921;DHT22;447;51.332;6.778;2022-10-31T14:58:47;18.00;99.90
921;DHT22;447;51.332;6.778;2022-10-31T15:01:25;18.00;99.90
921;DHT22;447;51.332;6.778;2022-10-31T15:04:13;18.00;99.90
921;DHT22;447;51.332;6.778;2022-10-31T15:06:50;18.00;99.90
921;DHT22;447;51.332;6.778;2022-10-31T15:09:25;18.00;99.90
921;DHT22;447;51.332;6.778;2022-10-31T15:11:52;18.00;99.90
921;DHT22;447;51.332;6.778;2022-10-31T15:14:24;18.00;99.90
921;DHT22;447;51.332;6.778;2022-10-31T15:16:54;17.90;99.90
921;DHT22;447;51.332;6.778;2022-10-31T15:19:26;17.90;99.90
921;DHT22;447;51.332;6.778;2022-10-31T15:21:57;17.90;99.90
921;DHT22;447;51.332;6.778;2022-10-31T15:24:33;18.00;99.90
921;DHT22;447;51.332;6.778;2022-10-31T15:27:03;17.90;99.90
921;DHT22;447;51.332;6.778;2022-10-31T15:29:32;18.00;99.90
921;DHT22;447;51.332;6.778;2022-10-31T15:32:00;18.00;99.90
921;DHT22;447;51.332;6.778;2022-10-31T15:34:41;17.90;99.90
921;DHT22;447;51.332;6.778;2022-10-31T15:37:17;17.90;99.90
921;DHT22;447;51.332;6.778;2022-10-31T15:39:47;17.90;99.90
921;DHT22;447;51.332;6.778;2022-10-31T15:42:49;17.90;99.90
921;DHT22;447;51.332;6.778;2022-10-31T15:47:57;18.00;99.90
921;DHT22;447;51.332;6.778;2022-10-31T15:52:58;17.90;99.90
921;DHT22;447;51.332;6.778;2022-10-31T15:55:38;17.90;99.90
921;DHT22;447;51.332;6.778;2022-10-31T15:58:14;17.90;99.90
921;DHT22;447;51.332;6.778;2022-10-31T16:00:41;17.90;99.90
921;DHT22;447;51.332;6.778;2022-10-31T16:05:51;17.90;99.90
921;DHT22;447;51.332;6.778;2022-10-31T16:13:54;17.90;99.90
921;DHT22;447;51.332;6.778;2022-10-31T16:16:20;17.90;99.90
921;DHT22;447;51.332;6.778;2022-10-31T16:18:50;17.90;99.90
921;DHT22;447;51.332;6.778;2022-10-31T16:21:27;17.90;99.90
921;DHT22;447;51.332;6.778;2022-10-31T16:23:59;17.90;99.90
921;DHT22;447;51.332;6.778;2022-10-31T16:26:29;17.90;99.90
921;DHT22;447;51.332;6.778;2022-10-31T16:28:57;17.90;99.90
921;DHT22;447;51.332;6.778;2022-10-31T16:31:40;17.90;99.90
921;DHT22;447;51.332;6.778;2022-10-31T16:34:19;17.90;99.90
921;DHT22;447;51.332;6.778;2022-10-31T16:36:45;17.90;99.90
921;DHT22;447;51.332;6.778;2022-10-31T16:39:11;17.90;99.90
921;DHT22;447;51.332;6.778;2022-10-31T16:41:41;17.90;99.90
921;DHT22;447;51.332;6.778;2022-10-31T16:44:25;17.90;99.90
921;DHT22;447;51.332;6.778;2022-10-31T16:47:20;17.90;99.90
921;DHT22;447;51.332;6.778;2022-10-31T16:49:51;17.90;99.90
921;DHT22;447;51.332;6.778;2022-10-31T16:52:21;17.90;99.90
921;DHT22;447;51.332;6.778;2022-10-31T16:54:49;17.80;99.90
921;DHT22;447;51.332;6.778;2022-10-31T16:57:18;17.80;99.90
921;DHT22;447;51.332;6.778;2022-10-31T16:59:51;17.90;99.90
921;DHT22;447;51.332;6.778;2022-10-31T17:02:31;17.80;99.90
921;DHT22;447;51.332;6.778;2022-10-31T17:04:57;17.80;99.90
921;DHT22;447;51.332;6.778;2022-10-31T17:07:23;17.80;99.90
921;DHT22;447;51.332;6.778;2022-10-31T17:09:50;17.80;99.90
921;DHT22;447;51.332;6.778;2022-10-31T17:12:22;17.80;99.90
921;DHT22;447;51.332;6.778;2022-10-31T17:14:51;17.80;99.90
921;DHT22;447;51.332;6.778;2022-10-31T17:17:22;17.80;99.90
921;DHT22;447;51.332;6.778;2022-10-31T17:19:48;17.80;99.90
921;DHT22;447;51.332;6.778;2022-10-31T17:22:14;17.80;99.90
921;DHT22;447;51.332;6.778;2022-10-31T17:24:43;17.80;99.90
921;DHT22;447;51.332;6.778;2022-10-31T17:27:09;17.80;99.90
921;DHT22;447;51.332;6.778;2022-10-31T17:29:39;17.80;99.90
921;DHT22;447;51.332;6.778;2022-10-31T17:32:07;17.80;99.90
921;DHT22;447;51.332;6.778;2022-10-31T17:34:33;17.80;99.90
921;DHT22;447;51.332;6.778;2022-10-31T17:36:59;17.80;99.90
921;DHT22;447;51.332;6.778;2022-10-31T17:39:30;17.80;99.90
921;DHT22;447;51.332;6.778;2022-10-31T17:42:03;17.80;99.90
921;DHT22;447;51.332;6.778;2022-10-31T17:44:29;17.80;99.90
921;DHT22;447;51.332;6.778;2022-10-31T17:46:57;17.80;99.90
921;DHT22;447;51.332;6.778;2022-10-31T17:49:27;17.80;99.90
921;DHT22;447;51.332;6.778;2022-10-31T17:51:55;17.80;99.90
921;DHT22;447;51.332;6.778;2022-10-31T17:54:21;17.80;99.90
921;DHT22;447;51.332;6.778;2022-10-31T17:56:51;17.80;99.90
921;DHT22;447;51.332;6.778;2022-10-31T17:59:20;17.80;99.90
921;DHT22;447;51.332;6.778;2022-10-31T18:01:48;17.80;99.90
921;DHT22;447;51.332;6.778;2022-10-31T18:04:14;17.80;99.90
921;DHT22;447;51.332;6.778;2022-10-31T18:06:44;17.80;99.90
921;DHT22;447;51.332;6.778;2022-10-31T18:09:14;17.80;99.90
921;DHT22;447;51.332;6.778;2022-10-31T18:11:41;17.80;99.90
921;DHT22;447;51.332;6.778;2022-10-31T18:14:08;17.80;99.90
921;DHT22;447;51.332;6.778;2022-10-31T18:16:54;17.80;99.90
921;DHT22;447;51.332;6.778;2022-10-31T18:19:20;17.80;99.90
921;DHT22;447;51.332;6.778;2022-10-31T18:21:50;17.80;99.90
921;DHT22;447;51.332;6.778;2022-10-31T18:24:18;17.80;99.90
921;DHT22;447;51.332;6.778;2022-10-31T18:26:47;17.80;99.90
921;DHT22;447;51.332;6.778;2022-10-31T18:29:13;17.80;99.90
921;DHT22;447;51.332;6.778;2022-10-31T18:31:39;17.80;99.90
921;DHT22;447;51.332;6.778;2022-10-31T18:34:08;17.80;99.90
921;DHT22;447;51.332;6.778;2022-10-31T18:36:34;17.80;99.90
921;DHT22;447;51.332;6.778;2022-10-31T18:39:00;17.80;99.90
921;DHT22;447;51.332;6.778;2022-10-31T18:41:32;17.80;99.90
921;DHT22;447;51.332;6.778;2022-10-31T18:43:58;17.80;99.90
921;DHT22;447;51.332;6.778;2022-10-31T18:46:30;17.80;99.90
921;DHT22;447;51.332;6.778;2022-10-31T18:49:02;17.80;99.90
921;DHT22;447;51.332;6.778;2022-10-31T18:51:31;17.80;99.90
921;DHT22;447;51.332;6.778;2022-10-31T18:54:02;17.80;99.90
921;DHT22;447;51.332;6.778;2022-10-31T18:56:32;17.80;99.90
921;DHT22;447;51.332;6.778;2022-10-31T18:59:17;17.80;99.90
921;DHT22;447;51.332;6.778;2022-10-31T19:01:48;17.80;99.90
921;DHT22;447;51.332;6.778;2022-10-31T19:04:16;17.80;99.90
921;DHT22;447;51.332;6.778;2022-10-31T19:06:45;17.80;99.90
921;DHT22;447;51.332;6.778;2022-10-31T19:09:13;17.80;99.90
921;DHT22;447;51.332;6.778;2022-10-31T19:11:42;17.80;99.90
921;DHT22;447;51.332;6.778;2022-10-31T19:14:09;17.80;99.90
921;DHT22;447;51.332;6.778;2022-10-31T19:16:39;17.70;99.90
921;DHT22;447;51.332;6.778;2022-10-31T19:19:08;17.80;99.90
921;DHT22;447;51.332;6.778;2022-10-31T19:21:37;17.80;99.90
921;DHT22;447;51.332;6.778;2022-10-31T19:24:07;17.80;99.90
921;DHT22;447;51.332;6.778;2022-10-31T19:26:36;17.80;99.90
921;DHT22;447;51.332;6.778;2022-10-31T19:29:10;17.70;99.90
921;DHT22;447;51.332;6.778;2022-10-31T19:31:36;17.70;99.90
921;DHT22;447;51.332;6.778;2022-10-31T19:34:02;17.70;99.90
921;DHT22;447;51.332;6.778;2022-10-31T19:36:30;17.70;99.90
921;DHT22;447;51.332;6.778;2022-10-31T19:38:56;17.70;99.90
921;DHT22;447;51.332;6.778;2022-10-31T19:41:25;17.70;99.90
921;DHT22;447;51.332;6.778;2022-10-31T19:43:54;17.70;99.90
921;DHT22;447;51.332;6.778;2022-10-31T19:46:21;17.70;99.90
921;DHT22;447;51.332;6.778;2022-10-31T19:48:50;17.70;99.90
921;DHT22;447;51.332;6.778;2022-10-31T19:51:22;17.70;99.90
921;DHT22;447;51.332;6.778;2022-10-31T19:53:50;17.70;99.90
921;DHT22;447;51.332;6.778;2022-10-31T19:56:21;17.70;99.90
921;DHT22;447;51.332;6.778;2022-10-31T19:58:49;17.70;99.90